sensor_id;sensor_type;location;lat;lon;timestamp;pressure;altitude;pressure_sealevel;temperature
71640;BMP280;60912;48.968;10.124;2023-06-22T00:02:04;96739.88;;;22.44
71640;BMP280;60912;48.968;10.124;2023-06-22T00:04:29;96740.78;;;22.49
71640;BMP280;60912;48.968;10.124;2023-06-22T00:06:55;96746.41;;;22.49
71640;BMP280;60912;48.968;10.124;2023-06-22T00:09:20;96761.91;;;22.36
71640;BMP280;60912;48.968;10.124;2023-06-22T00:11:45;96767.34;;;22.19
71640;BMP280;60912;48.968;10.124;2023-06-22T00:14:11;96758.28;;;22.20
71640;BMP280;60912;48.968;10.124;2023-06-22T00:16:36;96750.72;;;22.23
71640;BMP280;60912;48.968;10.124;2023-06-22T00:19:02;96744.97;;;22.21
71640;BMP280;60912;48.968;10.124;2023-06-22T00:21:28;96749.31;;;22.24
71640;BMP280;60912;48.968;10.124;2023-06-22T00:23:54;96740.88;;;22.24
71640;BMP280;60912;48.968;10.124;2023-06-22T00:26:20;96744.38;;;22.22
71640;BMP280;60912;48.968;10.124;2023-06-22T00:28:46;96738.00;;;22.22
71640;BMP280;60912;48.968;10.124;2023-06-22T00:31:11;96734.69;;;22.12
71640;BMP280;60912;48.968;10.124;2023-06-22T00:33:36;96724.78;;;22.11
71640;BMP280;60912;48.968;10.124;2023-06-22T00:36:02;96721.34;;;22.12
71640;BMP280;60912;48.968;10.124;2023-06-22T00:38:28;96719.91;;;22.11
71640;BMP280;60912;48.968;10.124;2023-06-22T00:40:53;96718.97;;;21.79
71640;BMP280;60912;48.968;10.124;2023-06-22T00:43:19;96721.66;;;21.64
71640;BMP280;60912;48.968;10.124;2023-06-22T00:45:44;96715.19;;;21.61
71640;BMP280;60912;48.968;10.124;2023-06-22T00:48:10;96717.69;;;21.55
71640;BMP280;60912;48.968;10.124;2023-06-22T00:50:37;96706.94;;;21.38
71640;BMP280;60912;48.968;10.124;2023-06-22T00:53:07;96698.50;;;21.38
71640;BMP280;60912;48.968;10.124;2023-06-22T00:55:43;96698.50;;;21.24
71640;BMP280;60912;48.968;10.124;2023-06-22T00:58:09;96700.97;;;21.18
71640;BMP280;60912;48.968;10.124;2023-06-22T01:00:36;96699.81;;;21.23
71640;BMP280;60912;48.968;10.124;2023-06-22T01:03:02;96701.47;;;21.15
71640;BMP280;60912;48.968;10.124;2023-06-22T01:05:28;96702.38;;;21.06
71640;BMP280;60912;48.968;10.124;2023-06-22T01:10:40;96713.47;;;21.04
71640;BMP280;60912;48.968;10.124;2023-06-22T01:16:05;96698.22;;;21.07
71640;BMP280;60912;48.968;10.124;2023-06-22T01:18:35;96705.72;;;21.16
71640;BMP280;60912;48.968;10.124;2023-06-22T01:21:04;96703.16;;;21.20
71640;BMP280;60912;48.968;10.124;2023-06-22T01:24:15;96706.16;;;21.24
71640;BMP280;60912;48.968;10.124;2023-06-22T01:27:09;96711.34;;;21.16
71640;BMP280;60912;48.968;10.124;2023-06-22T01:29:39;96713.28;;;21.13
71640;BMP280;60912;48.968;10.124;2023-06-22T01:32:06;96716.50;;;21.08
71640;BMP280;60912;48.968;10.124;2023-06-22T01:34:32;96722.38;;;21.00
71640;BMP280;60912;48.968;10.124;2023-06-22T01:37:00;96726.38;;;20.97
71640;BMP280;60912;48.968;10.124;2023-06-22T01:39:26;96724.69;;;21.04
71640;BMP280;60912;48.968;10.124;2023-06-22T01:41:52;96725.13;;;21.12
71640;BMP280;60912;48.968;10.124;2023-06-22T01:44:18;96733.75;;;21.16
71640;BMP280;60912;48.968;10.124;2023-06-22T01:46:43;96725.06;;;21.23
71640;BMP280;60912;48.968;10.124;2023-06-22T01:49:09;96728.16;;;21.16
71640;BMP280;60912;48.968;10.124;2023-06-22T01:51:34;96725.84;;;21.12
71640;BMP280;60912;48.968;10.124;2023-06-22T01:54:01;96730.97;;;21.16
71640;BMP280;60912;48.968;10.124;2023-06-22T01:56:27;96738.25;;;21.21
71640;BMP280;60912;48.968;10.124;2023-06-22T01:59:01;96756.63;;;21.24
71640;BMP280;60912;48.968;10.124;2023-06-22T02:01:33;96748.38;;;21.14
71640;BMP280;60912;48.968;10.124;2023-06-22T02:04:06;96747.25;;;20.94
71640;BMP280;60912;48.968;10.124;2023-06-22T02:06:36;96760.53;;;20.94
71640;BMP280;60912;48.968;10.124;2023-06-22T02:09:09;96760.97;;;21.02
71640;BMP280;60912;48.968;10.124;2023-06-22T02:11:37;96767.69;;;21.08
71640;BMP280;60912;48.968;10.124;2023-06-22T02:14:05;96767.16;;;21.12
71640;BMP280;60912;48.968;10.124;2023-06-22T02:16:31;96768.72;;;21.15
71640;BMP280;60912;48.968;10.124;2023-06-22T02:19:01;96771.78;;;21.19
71640;BMP280;60912;48.968;10.124;2023-06-22T02:21:28;96769.09;;;21.21
71640;BMP280;60912;48.968;10.124;2023-06-22T02:23:54;96770.63;;;21.24
71640;BMP280;60912;48.968;10.124;2023-06-22T02:26:19;96774.28;;;21.26
71640;BMP280;60912;48.968;10.124;2023-06-22T02:28:45;96777.13;;;21.15
71640;BMP280;60912;48.968;10.124;2023-06-22T02:31:11;96786.16;;;21.13
71640;BMP280;60912;48.968;10.124;2023-06-22T02:33:36;96779.22;;;21.14
71640;BMP280;60912;48.968;10.124;2023-06-22T02:36:01;96776.47;;;21.03
71640;BMP280;60912;48.968;10.124;2023-06-22T02:38:31;96766.72;;;21.04
71640;BMP280;60912;48.968;10.124;2023-06-22T02:40:58;96767.22;;;21.00
71640;BMP280;60912;48.968;10.124;2023-06-22T02:43:24;96758.31;;;21.04
71640;BMP280;60912;48.968;10.124;2023-06-22T02:45:50;96759.88;;;21.07
71640;BMP280;60912;48.968;10.124;2023-06-22T02:48:15;96750.63;;;21.04
71640;BMP280;60912;48.968;10.124;2023-06-22T02:50:40;96753.72;;;20.97
71640;BMP280;60912;48.968;10.124;2023-06-22T02:53:06;96761.88;;;20.93
71640;BMP280;60912;48.968;10.124;2023-06-22T02:55:31;96754.09;;;20.91
71640;BMP280;60912;48.968;10.124;2023-06-22T02:57:56;96753.34;;;20.91
71640;BMP280;60912;48.968;10.124;2023-06-22T03:00:22;96761.91;;;20.81
71640;BMP280;60912;48.968;10.124;2023-06-22T03:02:48;96752.66;;;20.78
71640;BMP280;60912;48.968;10.124;2023-06-22T03:05:17;96746.94;;;20.76
71640;BMP280;60912;48.968;10.124;2023-06-22T03:07:46;96744.13;;;20.76
71640;BMP280;60912;48.968;10.124;2023-06-22T03:10:13;96746.09;;;20.74
71640;BMP280;60912;48.968;10.124;2023-06-22T03:12:38;96740.31;;;20.58
71640;BMP280;60912;48.968;10.124;2023-06-22T03:15:05;96740.31;;;20.58
71640;BMP280;60912;48.968;10.124;2023-06-22T03:17:31;96732.53;;;20.45
71640;BMP280;60912;48.968;10.124;2023-06-22T03:19:56;96729.97;;;20.49
71640;BMP280;60912;48.968;10.124;2023-06-22T03:22:22;96728.88;;;20.54
71640;BMP280;60912;48.968;10.124;2023-06-22T03:24:47;96720.78;;;20.60
71640;BMP280;60912;48.968;10.124;2023-06-22T03:27:12;96726.88;;;20.68
71640;BMP280;60912;48.968;10.124;2023-06-22T03:29:38;96721.63;;;20.74
71640;BMP280;60912;48.968;10.124;2023-06-22T03:32:04;96733.78;;;20.79
71640;BMP280;60912;48.968;10.124;2023-06-22T03:34:31;96729.16;;;20.84
71640;BMP280;60912;48.968;10.124;2023-06-22T03:36:58;96736.41;;;20.89
71640;BMP280;60912;48.968;10.124;2023-06-22T03:39:24;96738.75;;;20.92
71640;BMP280;60912;48.968;10.124;2023-06-22T03:41:49;96723.88;;;20.90
71640;BMP280;60912;48.968;10.124;2023-06-22T03:44:14;96724.38;;;20.86
71640;BMP280;60912;48.968;10.124;2023-06-22T03:46:40;96718.22;;;20.76
71640;BMP280;60912;48.968;10.124;2023-06-22T03:49:05;96708.94;;;20.73
71640;BMP280;60912;48.968;10.124;2023-06-22T03:51:32;96713.88;;;20.87
71640;BMP280;60912;48.968;10.124;2023-06-22T03:53:57;96715.38;;;21.13
71640;BMP280;60912;48.968;10.124;2023-06-22T03:56:22;96708.28;;;21.37
71640;BMP280;60912;48.968;10.124;2023-06-22T03:58:48;96706.25;;;21.51
71640;BMP280;60912;48.968;10.124;2023-06-22T04:01:13;96708.81;;;21.72
71640;BMP280;60912;48.968;10.124;2023-06-22T04:03:39;96709.44;;;21.84
71640;BMP280;60912;48.968;10.124;2023-06-22T04:06:04;96709.78;;;21.65
71640;BMP280;60912;48.968;10.124;2023-06-22T04:08:30;96707.38;;;21.46
71640;BMP280;60912;48.968;10.124;2023-06-22T04:10:55;96713.66;;;21.85
71640;BMP280;60912;48.968;10.124;2023-06-22T04:13:21;96722.03;;;22.67
71640;BMP280;60912;48.968;10.124;2023-06-22T04:15:46;96719.44;;;23.61
71640;BMP280;60912;48.968;10.124;2023-06-22T04:18:12;96717.66;;;24.52
71640;BMP280;60912;48.968;10.124;2023-06-22T04:20:38;96713.94;;;25.55
71640;BMP280;60912;48.968;10.124;2023-06-22T04:23:04;96721.41;;;26.05
71640;BMP280;60912;48.968;10.124;2023-06-22T04:25:29;96704.59;;;26.75
71640;BMP280;60912;48.968;10.124;2023-06-22T04:27:55;96700.78;;;26.66
71640;BMP280;60912;48.968;10.124;2023-06-22T04:30:20;96705.94;;;27.43
71640;BMP280;60912;48.968;10.124;2023-06-22T04:32:45;96704.13;;;28.34
71640;BMP280;60912;48.968;10.124;2023-06-22T04:35:21;96707.50;;;28.86
71640;BMP280;60912;48.968;10.124;2023-06-22T04:37:47;96705.88;;;28.77
71640;BMP280;60912;48.968;10.124;2023-06-22T04:40:15;96699.84;;;29.28
71640;BMP280;60912;48.968;10.124;2023-06-22T04:42:40;96688.41;;;29.24
71640;BMP280;60912;48.968;10.124;2023-06-22T04:45:06;96693.53;;;29.68
71640;BMP280;60912;48.968;10.124;2023-06-22T04:47:31;96684.75;;;30.35
71640;BMP280;60912;48.968;10.124;2023-06-22T04:49:58;96684.88;;;30.95
71640;BMP280;60912;48.968;10.124;2023-06-22T04:52:23;96682.00;;;31.51
71640;BMP280;60912;48.968;10.124;2023-06-22T04:54:49;96677.13;;;30.04
71640;BMP280;60912;48.968;10.124;2023-06-22T04:57:20;96680.34;;;29.47
71640;BMP280;60912;48.968;10.124;2023-06-22T04:59:58;96681.22;;;29.95
71640;BMP280;60912;48.968;10.124;2023-06-22T05:02:36;96675.44;;;30.79
71640;BMP280;60912;48.968;10.124;2023-06-22T05:05:02;96676.75;;;31.97
71640;BMP280;60912;48.968;10.124;2023-06-22T05:07:33;96665.81;;;31.72
71640;BMP280;60912;48.968;10.124;2023-06-22T05:09:58;96665.91;;;30.12
71640;BMP280;60912;48.968;10.124;2023-06-22T05:12:23;96659.59;;;29.76
71640;BMP280;60912;48.968;10.124;2023-06-22T05:14:49;96663.34;;;29.86
71640;BMP280;60912;48.968;10.124;2023-06-22T05:17:14;96662.53;;;29.82
71640;BMP280;60912;48.968;10.124;2023-06-22T05:19:41;96650.00;;;30.41
71640;BMP280;60912;48.968;10.124;2023-06-22T05:22:10;96656.91;;;29.86
71640;BMP280;60912;48.968;10.124;2023-06-22T05:24:37;96653.69;;;27.73
71640;BMP280;60912;48.968;10.124;2023-06-22T05:27:03;96642.06;;;27.36
71640;BMP280;60912;48.968;10.124;2023-06-22T05:29:28;96645.72;;;27.40
71640;BMP280;60912;48.968;10.124;2023-06-22T05:31:53;96642.13;;;28.21
71640;BMP280;60912;48.968;10.124;2023-06-22T05:34:19;96634.31;;;27.91
71640;BMP280;60912;48.968;10.124;2023-06-22T05:36:44;96639.84;;;27.85
71640;BMP280;60912;48.968;10.124;2023-06-22T05:39:13;96640.94;;;28.00
71640;BMP280;60912;48.968;10.124;2023-06-22T05:41:39;96640.66;;;27.62
71640;BMP280;60912;48.968;10.124;2023-06-22T05:44:04;96642.63;;;28.41
71640;BMP280;60912;48.968;10.124;2023-06-22T05:46:30;96633.88;;;29.30
71640;BMP280;60912;48.968;10.124;2023-06-22T05:48:55;96640.94;;;29.27
71640;BMP280;60912;48.968;10.124;2023-06-22T05:51:20;96630.47;;;28.36
71640;BMP280;60912;48.968;10.124;2023-06-22T05:53:46;96635.78;;;27.92
71640;BMP280;60912;48.968;10.124;2023-06-22T05:56:15;96629.06;;;28.08
71640;BMP280;60912;48.968;10.124;2023-06-22T05:58:40;96634.91;;;28.16
71640;BMP280;60912;48.968;10.124;2023-06-22T06:01:06;96625.31;;;28.29
71640;BMP280;60912;48.968;10.124;2023-06-22T06:03:34;96622.19;;;27.87
71640;BMP280;60912;48.968;10.124;2023-06-22T06:06:09;96621.78;;;27.45
71640;BMP280;60912;48.968;10.124;2023-06-22T06:08:36;96625.13;;;27.38
71640;BMP280;60912;48.968;10.124;2023-06-22T06:11:02;96627.06;;;26.58
71640;BMP280;60912;48.968;10.124;2023-06-22T06:13:27;96620.41;;;26.49
71640;BMP280;60912;48.968;10.124;2023-06-22T06:15:52;96623.44;;;26.79
71640;BMP280;60912;48.968;10.124;2023-06-22T06:18:20;96618.34;;;26.74
71640;BMP280;60912;48.968;10.124;2023-06-22T06:20:45;96620.22;;;26.91
71640;BMP280;60912;48.968;10.124;2023-06-22T06:23:11;96629.06;;;27.03
71640;BMP280;60912;48.968;10.124;2023-06-22T06:25:36;96621.09;;;26.95
71640;BMP280;60912;48.968;10.124;2023-06-22T06:28:02;96611.38;;;27.52
71640;BMP280;60912;48.968;10.124;2023-06-22T06:30:28;96611.69;;;27.38
71640;BMP280;60912;48.968;10.124;2023-06-22T06:32:54;96613.34;;;27.47
71640;BMP280;60912;48.968;10.124;2023-06-22T06:35:19;96611.75;;;27.40
71640;BMP280;60912;48.968;10.124;2023-06-22T06:37:48;96604.97;;;28.07
71640;BMP280;60912;48.968;10.124;2023-06-22T06:40:14;96606.97;;;28.32
71640;BMP280;60912;48.968;10.124;2023-06-22T06:42:48;96607.50;;;28.24
71640;BMP280;60912;48.968;10.124;2023-06-22T06:45:19;96602.81;;;28.68
71640;BMP280;60912;48.968;10.124;2023-06-22T06:47:45;96606.38;;;28.69
71640;BMP280;60912;48.968;10.124;2023-06-22T06:50:10;96606.22;;;28.29
71640;BMP280;60912;48.968;10.124;2023-06-22T06:52:36;96596.13;;;28.54
71640;BMP280;60912;48.968;10.124;2023-06-22T06:55:02;96606.53;;;28.75
71640;BMP280;60912;48.968;10.124;2023-06-22T06:57:29;96588.31;;;27.93
71640;BMP280;60912;48.968;10.124;2023-06-22T06:59:56;96595.09;;;27.80
71640;BMP280;60912;48.968;10.124;2023-06-22T07:02:22;96589.75;;;27.64
71640;BMP280;60912;48.968;10.124;2023-06-22T07:04:47;96588.56;;;28.03
71640;BMP280;60912;48.968;10.124;2023-06-22T07:07:13;96587.81;;;28.62
71640;BMP280;60912;48.968;10.124;2023-06-22T07:09:39;96587.06;;;28.59
71640;BMP280;60912;48.968;10.124;2023-06-22T07:12:05;96586.78;;;28.81
71640;BMP280;60912;48.968;10.124;2023-06-22T07:14:30;96586.75;;;28.79
71640;BMP280;60912;48.968;10.124;2023-06-22T07:16:57;96590.22;;;28.76
71640;BMP280;60912;48.968;10.124;2023-06-22T07:19:27;96586.31;;;29.30
71640;BMP280;60912;48.968;10.124;2023-06-22T07:21:55;96589.22;;;29.32
71640;BMP280;60912;48.968;10.124;2023-06-22T07:24:21;96589.25;;;29.34
71640;BMP280;60912;48.968;10.124;2023-06-22T07:26:47;96584.25;;;29.73
71640;BMP280;60912;48.968;10.124;2023-06-22T07:29:15;96577.31;;;29.02
71640;BMP280;60912;48.968;10.124;2023-06-22T07:31:40;96582.00;;;29.65
71640;BMP280;60912;48.968;10.124;2023-06-22T07:34:06;96583.03;;;29.84
71640;BMP280;60912;48.968;10.124;2023-06-22T07:36:31;96586.53;;;30.28
71640;BMP280;60912;48.968;10.124;2023-06-22T07:38:57;96584.97;;;30.69
71640;BMP280;60912;48.968;10.124;2023-06-22T07:41:22;96592.78;;;30.68
71640;BMP280;60912;48.968;10.124;2023-06-22T07:43:48;96590.41;;;30.51
71640;BMP280;60912;48.968;10.124;2023-06-22T07:46:13;96595.78;;;30.27
71640;BMP280;60912;48.968;10.124;2023-06-22T07:48:39;96584.13;;;30.58
71640;BMP280;60912;48.968;10.124;2023-06-22T07:51:04;96592.81;;;30.21
71640;BMP280;60912;48.968;10.124;2023-06-22T07:53:31;96579.72;;;30.49
71640;BMP280;60912;48.968;10.124;2023-06-22T07:55:56;96577.84;;;30.18
71640;BMP280;60912;48.968;10.124;2023-06-22T07:58:22;96581.47;;;30.74
71640;BMP280;60912;48.968;10.124;2023-06-22T08:00:47;96573.03;;;30.31
71640;BMP280;60912;48.968;10.124;2023-06-22T08:03:14;96575.50;;;30.54
71640;BMP280;60912;48.968;10.124;2023-06-22T08:05:40;96569.47;;;30.82
71640;BMP280;60912;48.968;10.124;2023-06-22T08:08:07;96570.00;;;30.17
71640;BMP280;60912;48.968;10.124;2023-06-22T08:10:39;96567.16;;;30.66
71640;BMP280;60912;48.968;10.124;2023-06-22T08:13:04;96560.75;;;30.66
71640;BMP280;60912;48.968;10.124;2023-06-22T08:15:30;96564.94;;;30.61
71640;BMP280;60912;48.968;10.124;2023-06-22T08:17:55;96564.69;;;30.99
71640;BMP280;60912;48.968;10.124;2023-06-22T08:20:20;96549.78;;;31.06
71640;BMP280;60912;48.968;10.124;2023-06-22T08:22:46;96549.69;;;31.70
71640;BMP280;60912;48.968;10.124;2023-06-22T08:25:11;96551.22;;;31.85
71640;BMP280;60912;48.968;10.124;2023-06-22T08:27:38;96542.34;;;31.41
71640;BMP280;60912;48.968;10.124;2023-06-22T08:30:04;96554.66;;;30.94
71640;BMP280;60912;48.968;10.124;2023-06-22T08:32:30;96555.44;;;30.40
71640;BMP280;60912;48.968;10.124;2023-06-22T08:34:57;96542.41;;;30.81
71640;BMP280;60912;48.968;10.124;2023-06-22T08:37:23;96534.69;;;30.90
71640;BMP280;60912;48.968;10.124;2023-06-22T08:39:56;96539.13;;;31.03
71640;BMP280;60912;48.968;10.124;2023-06-22T08:42:21;96540.50;;;31.00
71640;BMP280;60912;48.968;10.124;2023-06-22T08:44:48;96546.13;;;30.96
71640;BMP280;60912;48.968;10.124;2023-06-22T08:47:13;96537.59;;;30.92
71640;BMP280;60912;48.968;10.124;2023-06-22T08:49:39;96531.06;;;31.57
71640;BMP280;60912;48.968;10.124;2023-06-22T08:52:04;96525.69;;;32.05
71640;BMP280;60912;48.968;10.124;2023-06-22T08:54:30;96531.25;;;31.81
71640;BMP280;60912;48.968;10.124;2023-06-22T08:56:58;96518.47;;;31.88
71640;BMP280;60912;48.968;10.124;2023-06-22T08:59:23;96516.88;;;31.67
71640;BMP280;60912;48.968;10.124;2023-06-22T09:01:48;96506.06;;;31.47
71640;BMP280;60912;48.968;10.124;2023-06-22T09:04:14;96514.53;;;31.37
71640;BMP280;60912;48.968;10.124;2023-06-22T09:06:40;96495.84;;;31.22
71640;BMP280;60912;48.968;10.124;2023-06-22T09:09:10;96500.53;;;31.72
71640;BMP280;60912;48.968;10.124;2023-06-22T09:11:36;96506.06;;;31.47
71640;BMP280;60912;48.968;10.124;2023-06-22T09:14:01;96500.03;;;32.03
71640;BMP280;60912;48.968;10.124;2023-06-22T09:16:26;96499.31;;;32.07
71640;BMP280;60912;48.968;10.124;2023-06-22T09:18:52;96498.78;;;32.43
71640;BMP280;60912;48.968;10.124;2023-06-22T09:21:17;96501.53;;;32.18
71640;BMP280;60912;48.968;10.124;2023-06-22T09:23:43;96502.88;;;32.03
71640;BMP280;60912;48.968;10.124;2023-06-22T09:26:08;96507.16;;;32.02
71640;BMP280;60912;48.968;10.124;2023-06-22T09:28:34;96515.66;;;31.94
71640;BMP280;60912;48.968;10.124;2023-06-22T09:30:59;96509.28;;;32.06
71640;BMP280;60912;48.968;10.124;2023-06-22T09:33:26;96510.31;;;32.79
71640;BMP280;60912;48.968;10.124;2023-06-22T09:35:51;96518.88;;;32.85
71640;BMP280;60912;48.968;10.124;2023-06-22T09:38:17;96522.47;;;33.06
71640;BMP280;60912;48.968;10.124;2023-06-22T09:40:42;96529.63;;;33.07
71640;BMP280;60912;48.968;10.124;2023-06-22T09:43:08;96526.06;;;33.26
71640;BMP280;60912;48.968;10.124;2023-06-22T09:45:33;96523.22;;;33.44
71640;BMP280;60912;48.968;10.124;2023-06-22T09:47:59;96523.94;;;33.27
71640;BMP280;60912;48.968;10.124;2023-06-22T09:50:24;96528.94;;;33.52
71640;BMP280;60912;48.968;10.124;2023-06-22T09:52:49;96522.50;;;33.56
71640;BMP280;60912;48.968;10.124;2023-06-22T09:55:22;96525.97;;;34.09
71640;BMP280;60912;48.968;10.124;2023-06-22T09:57:48;96520.66;;;34.76
71640;BMP280;60912;48.968;10.124;2023-06-22T10:00:15;96533.63;;;34.69
71640;BMP280;60912;48.968;10.124;2023-06-22T10:02:43;96534.28;;;34.75
71640;BMP280;60912;48.968;10.124;2023-06-22T10:05:09;96538.56;;;34.76
71640;BMP280;60912;48.968;10.124;2023-06-22T10:07:35;96535.78;;;34.60
71640;BMP280;60912;48.968;10.124;2023-06-22T10:10:05;96526.47;;;34.59
71640;BMP280;60912;48.968;10.124;2023-06-22T10:12:31;96515.66;;;34.78
71640;BMP280;60912;48.968;10.124;2023-06-22T10:14:56;96520.16;;;34.35
71640;BMP280;60912;48.968;10.124;2023-06-22T10:17:22;96517.28;;;34.39
71640;BMP280;60912;48.968;10.124;2023-06-22T10:19:47;96513.03;;;34.26
71640;BMP280;60912;48.968;10.124;2023-06-22T10:22:13;96513.00;;;34.36
71640;BMP280;60912;48.968;10.124;2023-06-22T10:24:38;96520.25;;;34.07
71640;BMP280;60912;48.968;10.124;2023-06-22T10:27:09;96514.38;;;34.47
71640;BMP280;60912;48.968;10.124;2023-06-22T10:29:35;96497.75;;;34.72
71640;BMP280;60912;48.968;10.124;2023-06-22T10:32:00;96490.06;;;34.46
71640;BMP280;60912;48.968;10.124;2023-06-22T10:34:25;96493.09;;;34.00
71640;BMP280;60912;48.968;10.124;2023-06-22T10:36:51;96490.03;;;34.50
71640;BMP280;60912;48.968;10.124;2023-06-22T10:39:16;96482.28;;;34.26
71640;BMP280;60912;48.968;10.124;2023-06-22T10:41:41;96489.56;;;33.93
71640;BMP280;60912;48.968;10.124;2023-06-22T10:44:07;96484.56;;;33.90
71640;BMP280;60912;48.968;10.124;2023-06-22T10:46:35;96476.44;;;34.48
71640;BMP280;60912;48.968;10.124;2023-06-22T10:49:00;96474.22;;;34.63
71640;BMP280;60912;48.968;10.124;2023-06-22T10:51:26;96464.34;;;34.36
71640;BMP280;60912;48.968;10.124;2023-06-22T10:53:53;96465.72;;;34.45
71640;BMP280;60912;48.968;10.124;2023-06-22T10:56:18;96459.91;;;34.65
71640;BMP280;60912;48.968;10.124;2023-06-22T10:58:45;96452.38;;;35.12
71640;BMP280;60912;48.968;10.124;2023-06-22T11:01:10;96459.13;;;34.73
71640;BMP280;60912;48.968;10.124;2023-06-22T11:03:36;96464.72;;;34.89
71640;BMP280;60912;48.968;10.124;2023-06-22T11:06:01;96472.41;;;35.14
71640;BMP280;60912;48.968;10.124;2023-06-22T11:08:27;96462.28;;;35.23
71640;BMP280;60912;48.968;10.124;2023-06-22T11:10:52;96470.53;;;34.81
71640;BMP280;60912;48.968;10.124;2023-06-22T11:13:18;96461.16;;;34.86
71640;BMP280;60912;48.968;10.124;2023-06-22T11:15:43;96462.75;;;35.52
71640;BMP280;60912;48.968;10.124;2023-06-22T11:18:08;96455.59;;;35.51
71640;BMP280;60912;48.968;10.124;2023-06-22T11:20:34;96456.22;;;35.58
71640;BMP280;60912;48.968;10.124;2023-06-22T11:23:04;96453.56;;;35.41
71640;BMP280;60912;48.968;10.124;2023-06-22T11:25:30;96432.66;;;35.51
71640;BMP280;60912;48.968;10.124;2023-06-22T11:27:55;96423.72;;;35.81
71640;BMP280;60912;48.968;10.124;2023-06-22T11:30:21;96420.16;;;35.79
71640;BMP280;60912;48.968;10.124;2023-06-22T11:32:46;96423.88;;;35.67
71640;BMP280;60912;48.968;10.124;2023-06-22T11:35:11;96426.22;;;35.51
71640;BMP280;60912;48.968;10.124;2023-06-22T11:37:37;96423.69;;;35.16
71640;BMP280;60912;48.968;10.124;2023-06-22T11:40:02;96418.50;;;35.33
71640;BMP280;60912;48.968;10.124;2023-06-22T11:42:30;96424.09;;;35.49
71640;BMP280;60912;48.968;10.124;2023-06-22T11:44:56;96422.00;;;35.43
71640;BMP280;60912;48.968;10.124;2023-06-22T11:47:21;96424.22;;;35.98
71640;BMP280;60912;48.968;10.124;2023-06-22T11:49:46;96419.78;;;36.07
71640;BMP280;60912;48.968;10.124;2023-06-22T11:52:12;96423.13;;;36.72
71640;BMP280;60912;48.968;10.124;2023-06-22T11:54:37;96422.41;;;36.25
71640;BMP280;60912;48.968;10.124;2023-06-22T11:57:04;96425.81;;;36.38
71640;BMP280;60912;48.968;10.124;2023-06-22T11:59:29;96421.72;;;36.24
71640;BMP280;60912;48.968;10.124;2023-06-22T12:01:54;96411.97;;;36.52
71640;BMP280;60912;48.968;10.124;2023-06-22T12:04:20;96415.38;;;36.63
71640;BMP280;60912;48.968;10.124;2023-06-22T12:06:46;96414.66;;;36.64
71640;BMP280;60912;48.968;10.124;2023-06-22T12:09:11;96411.81;;;36.62
71640;BMP280;60912;48.968;10.124;2023-06-22T12:11:38;96412.06;;;36.46
71640;BMP280;60912;48.968;10.124;2023-06-22T12:14:04;96400.75;;;36.79
71640;BMP280;60912;48.968;10.124;2023-06-22T12:16:29;96395.59;;;36.87
71640;BMP280;60912;48.968;10.124;2023-06-22T12:18:55;96397.91;;;36.77
71640;BMP280;60912;48.968;10.124;2023-06-22T12:21:23;96393.34;;;36.49
71640;BMP280;60912;48.968;10.124;2023-06-22T12:23:48;96399.59;;;36.15
71640;BMP280;60912;48.968;10.124;2023-06-22T12:26:14;96396.75;;;35.58
71640;BMP280;60912;48.968;10.124;2023-06-22T12:28:39;96389.56;;;35.57
71640;BMP280;60912;48.968;10.124;2023-06-22T12:31:05;96398.75;;;35.70
71640;BMP280;60912;48.968;10.124;2023-06-22T12:33:30;96391.84;;;35.49
71640;BMP280;60912;48.968;10.124;2023-06-22T12:35:56;96403.69;;;35.10
71640;BMP280;60912;48.968;10.124;2023-06-22T12:38:22;96404.53;;;34.95
71640;BMP280;60912;48.968;10.124;2023-06-22T12:40:47;96413.91;;;34.93
71640;BMP280;60912;48.968;10.124;2023-06-22T12:43:14;96423.81;;;35.04
71640;BMP280;60912;48.968;10.124;2023-06-22T12:45:39;96426.47;;;35.24
71640;BMP280;60912;48.968;10.124;2023-06-22T12:48:05;96420.19;;;35.75
71640;BMP280;60912;48.968;10.124;2023-06-22T12:50:31;96397.53;;;35.53
71640;BMP280;60912;48.968;10.124;2023-06-22T12:52:56;96360.69;;;35.14
71640;BMP280;60912;48.968;10.124;2023-06-22T12:55:22;96354.28;;;35.10
71640;BMP280;60912;48.968;10.124;2023-06-22T12:57:47;96352.22;;;35.02
71640;BMP280;60912;48.968;10.124;2023-06-22T13:00:13;96366.31;;;35.24
71640;BMP280;60912;48.968;10.124;2023-06-22T13:02:38;96379.19;;;35.27
71640;BMP280;60912;48.968;10.124;2023-06-22T13:05:04;96388.81;;;35.61
71640;BMP280;60912;48.968;10.124;2023-06-22T13:07:32;96386.00;;;35.59
71640;BMP280;60912;48.968;10.124;2023-06-22T13:09:58;96382.63;;;35.95
71640;BMP280;60912;48.968;10.124;2023-06-22T13:12:23;96373.47;;;36.35
71640;BMP280;60912;48.968;10.124;2023-06-22T13:14:49;96376.69;;;36.58
71640;BMP280;60912;48.968;10.124;2023-06-22T13:17:14;96377.69;;;36.40
71640;BMP280;60912;48.968;10.124;2023-06-22T13:19:40;96376.25;;;35.92
71640;BMP280;60912;48.968;10.124;2023-06-22T13:22:31;96374.53;;;35.59
71640;BMP280;60912;48.968;10.124;2023-06-22T13:24:58;96385.06;;;35.76
71640;BMP280;60912;48.968;10.124;2023-06-22T13:27:23;96383.81;;;36.14
71640;BMP280;60912;48.968;10.124;2023-06-22T13:29:49;96382.03;;;36.37
71640;BMP280;60912;48.968;10.124;2023-06-22T13:32:14;96385.97;;;36.62
71640;BMP280;60912;48.968;10.124;2023-06-22T13:34:40;96392.06;;;36.40
71640;BMP280;60912;48.968;10.124;2023-06-22T13:37:05;96396.22;;;36.49
71640;BMP280;60912;48.968;10.124;2023-06-22T13:39:31;96397.56;;;36.56
71640;BMP280;60912;48.968;10.124;2023-06-22T13:41:57;96389.78;;;36.47
71640;BMP280;60912;48.968;10.124;2023-06-22T13:44:23;96383.41;;;36.42
71640;BMP280;60912;48.968;10.124;2023-06-22T13:46:48;96387.03;;;36.41
71640;BMP280;60912;48.968;10.124;2023-06-22T13:49:13;96394.72;;;36.05
71640;BMP280;60912;48.968;10.124;2023-06-22T13:51:39;96386.88;;;36.00
71640;BMP280;60912;48.968;10.124;2023-06-22T13:54:04;96382.63;;;35.99
71640;BMP280;60912;48.968;10.124;2023-06-22T13:56:30;96373.94;;;36.03
71640;BMP280;60912;48.968;10.124;2023-06-22T13:58:55;96376.84;;;36.01